KPGA/PGA METAR and TAF weather

Enter ICAO airport designator
Station Type Date Time Source
KPGA METAR 2019/07/17 17:53 UTC NOAA

KPGA 171753Z AUTO 35007KT 10SM CLR 34/M01 A3006 RMK AO2 SLP095 T03441006 10344 20233 50001 TSNO


Station Type Date Time Source
KPGA Decoded METAR 2019/07/17 17:53 UTC NOAA

PAGE MUNICIPAL AIRPORT, AZ, United States (KPGA) 36-56N 111-27W 1307M
Jul 17, 2019 - 01:53 PM EDT / 2019.07.17 1753 UTC
Wind: from the N (350 degrees) at 8 MPH (7 KT):0
Visibility: 10 mile(s):0
Sky conditions: clear
Temperature: 93.9 F (34.4 C)
Dew Point: 30.9 F (-0.6 C)
Relative Humidity: 10%
Pressure (altimeter): 30.06 in. Hg (1017 hPa)
Pressure tendency: 0.00 inches (0.1 hPa) higher than three hours ago
ob: KPGA 171753Z AUTO 35007KT 10SM CLR 34/M01 A3006 RMK AO2 SLP095 T03441006 10344 20233 50001 TSNO
cycle: 18

Station Type Date Time Source
KPGA TAF 2019/07/17 18:27 UTC NOAA

TAF KPGA 171724Z 1718/1818 34005KT P6SM SKC
FM172000 25010G20KT P6SM FEW120
FM180400 21008KT P6SM SKC

Example: see airport list